createdAt,value
2023-02-27T07:22:32.610Z,0.97
2023-02-27T07:23:36.289Z,0.90
2023-02-27T07:24:40.163Z,0.90
2023-02-27T07:25:42.934Z,0.93
2023-02-27T07:26:45.731Z,0.96
2023-02-27T07:27:50.890Z,0.94
2023-02-27T07:28:55.029Z,0.84
2023-02-27T07:29:58.079Z,0.95
2023-02-27T07:31:01.102Z,0.92
2023-02-27T07:32:04.156Z,0.91
2023-02-27T07:33:07.373Z,1.00
2023-02-27T07:34:12.106Z,0.98
2023-02-27T07:35:14.926Z,0.94
2023-02-27T07:36:18.008Z,0.98
2023-02-27T07:37:20.997Z,0.99
2023-02-27T07:38:24.553Z,0.97
2023-02-27T07:39:27.689Z,1.01
2023-02-27T07:40:30.572Z,0.95
2023-02-27T07:41:33.574Z,0.98
2023-02-27T07:42:36.534Z,0.96
2023-02-27T07:43:39.251Z,0.97
2023-02-27T07:44:42.345Z,0.97
2023-02-27T07:45:45.448Z,1.02
2023-02-27T07:46:48.305Z,0.96
2023-02-27T07:47:51.120Z,1.00
2023-02-27T07:48:54.579Z,1.09
2023-02-27T07:49:57.994Z,1.07
2023-02-27T07:51:01.550Z,1.16
2023-02-27T07:52:04.518Z,1.18
2023-02-27T07:53:08.158Z,1.11
2023-02-27T07:54:11.202Z,1.10
2023-02-27T07:55:14.933Z,1.13
2023-02-27T07:56:18.423Z,1.19
2023-02-27T07:57:21.370Z,1.23
2023-02-27T07:58:27.761Z,1.30
2023-02-27T07:59:30.575Z,1.29
2023-02-27T08:00:34.502Z,1.27
2023-02-27T08:01:37.533Z,1.31
2023-02-27T08:02:40.955Z,1.29
2023-02-27T08:03:43.864Z,1.27
2023-02-27T08:04:46.735Z,1.28
2023-02-27T08:05:49.517Z,1.38
2023-02-27T08:06:52.558Z,1.43
2023-02-27T08:07:55.491Z,1.42
2023-02-27T08:08:58.358Z,1.41
2023-02-27T08:10:01.141Z,1.51
2023-02-27T08:11:04.186Z,1.55
2023-02-27T08:12:07.431Z,1.63
2023-02-27T08:13:10.316Z,1.50
2023-02-27T08:14:12.991Z,1.40
2023-02-27T08:15:17.151Z,1.49
2023-02-27T08:16:22.669Z,1.42
2023-02-27T08:17:26.041Z,1.44
2023-02-27T08:18:28.830Z,1.54
2023-02-27T08:19:31.966Z,1.46
2023-02-27T08:20:35.184Z,1.46
2023-02-27T08:21:38.369Z,1.58
2023-02-27T08:22:42.467Z,1.71
2023-02-27T08:23:45.719Z,1.69
2023-02-27T08:24:48.435Z,1.65
2023-02-27T08:25:51.487Z,1.54
2023-02-27T08:26:54.497Z,1.49
2023-02-27T08:27:57.602Z,1.59
2023-02-27T08:29:00.496Z,1.53
2023-02-27T08:30:04.720Z,1.67
2023-02-27T08:31:08.252Z,1.77
2023-02-27T08:32:11.660Z,1.86
2023-02-27T08:33:15.343Z,1.85
2023-02-27T08:34:18.207Z,1.83
2023-02-27T08:35:21.841Z,2.00
2023-02-27T08:36:25.479Z,2.20
2023-02-27T08:37:29.599Z,2.37
2023-02-27T08:38:33.436Z,2.29
2023-02-27T08:39:36.243Z,2.26
2023-02-27T08:40:39.113Z,2.27
2023-02-27T08:41:41.959Z,2.21
2023-02-27T08:42:45.063Z,2.30
2023-02-27T08:43:48.867Z,2.34
2023-02-27T08:44:51.855Z,2.23
2023-02-27T08:45:54.883Z,2.21
2023-02-27T08:46:57.808Z,2.07
2023-02-27T08:48:00.594Z,2.10
2023-02-27T08:49:03.771Z,2.15
2023-02-27T08:50:06.841Z,2.26
2023-02-27T08:51:10.255Z,2.27
2023-02-27T08:52:13.174Z,2.14
2023-02-27T08:53:15.968Z,2.19
2023-02-27T08:54:19.716Z,2.33
2023-02-27T08:55:22.526Z,2.22
2023-02-27T08:56:26.843Z,2.39
2023-02-27T08:57:29.939Z,2.46
2023-02-27T08:58:34.746Z,2.46
2023-02-27T08:59:38.086Z,2.60
2023-02-27T09:00:41.206Z,2.73
2023-02-27T09:01:45.030Z,2.66
2023-02-27T09:02:47.823Z,2.65
2023-02-27T09:03:51.050Z,2.76
2023-02-27T09:04:54.196Z,2.68
2023-02-27T09:05:57.073Z,2.91
2023-02-27T09:06:59.938Z,2.84
2023-02-27T09:08:03.795Z,2.95
2023-02-27T09:09:07.079Z,2.92
2023-02-27T09:10:10.856Z,3.08
2023-02-27T09:11:14.369Z,3.07
2023-02-27T09:12:17.103Z,3.11
2023-02-27T09:13:22.110Z,3.08
2023-02-27T09:14:24.962Z,2.84
2023-02-27T09:15:28.920Z,2.96
2023-02-27T09:16:32.061Z,2.76
2023-02-27T09:17:34.936Z,2.80
2023-02-27T09:18:37.836Z,2.86
2023-02-27T09:19:40.716Z,2.82
2023-02-27T09:20:43.852Z,2.72
2023-02-27T09:21:46.897Z,2.76
2023-02-27T09:22:49.952Z,2.86
2023-02-27T09:23:53.129Z,2.64
2023-02-27T09:24:56.201Z,2.46
2023-02-27T09:25:59.354Z,2.55
2023-02-27T09:27:02.146Z,2.78
2023-02-27T09:28:05.102Z,2.78
2023-02-27T09:29:07.995Z,2.80
2023-02-27T09:30:11.499Z,2.81
2023-02-27T09:31:17.717Z,2.72
2023-02-27T09:32:20.707Z,2.92
2023-02-27T09:33:24.846Z,3.05
2023-02-27T09:34:27.692Z,3.03
2023-02-27T09:35:30.522Z,2.89
2023-02-27T09:36:33.663Z,2.80
2023-02-27T09:37:37.125Z,2.77
2023-02-27T09:38:41.376Z,2.87
2023-02-27T09:39:46.249Z,3.04
2023-02-27T09:40:53.079Z,3.03
2023-02-27T09:41:56.086Z,3.02
2023-02-27T09:43:10.333Z,3.02
2023-02-27T09:44:36.334Z,3.10
2023-02-27T09:45:50.332Z,3.12
2023-02-27T09:46:54.333Z,3.32
2023-02-27T09:48:08.601Z,3.12
2023-02-27T09:49:15.127Z,3.12
2023-02-27T09:50:40.752Z,3.41
2023-02-27T09:51:43.582Z,3.23
2023-02-27T09:52:46.590Z,3.46
2023-02-27T09:53:56.992Z,3.39
2023-02-27T09:55:00.634Z,3.57
2023-02-27T09:56:33.298Z,3.47
2023-02-27T09:58:06.882Z,3.50
2023-02-27T09:59:12.804Z,3.33
2023-02-27T10:00:27.712Z,3.39
2023-02-27T10:01:41.004Z,3.30
2023-02-27T10:03:09.985Z,3.20
2023-02-27T10:04:31.093Z,3.45
2023-02-27T10:06:01.966Z,3.61
2023-02-27T10:07:25.142Z,3.56
2023-02-27T10:08:39.346Z,3.39
2023-02-27T10:10:04.826Z,3.18
2023-02-27T10:11:11.060Z,3.21
2023-02-27T10:12:17.077Z,3.34
2023-02-27T10:13:44.485Z,3.38
2023-02-27T10:14:59.901Z,3.43
2023-02-27T10:16:04.139Z,3.28
2023-02-27T10:17:15.734Z,3.17
2023-02-27T10:18:29.019Z,3.08
2023-02-27T10:19:37.755Z,3.16
2023-02-27T10:20:58.765Z,3.37
2023-02-27T10:22:08.564Z,3.35
2023-02-27T10:23:19.339Z,3.22
2023-02-27T10:24:30.439Z,3.27
2023-02-27T10:25:38.228Z,3.20
2023-02-27T10:26:42.829Z,3.11
2023-02-27T10:27:53.716Z,3.26
2023-02-27T10:28:59.270Z,3.35
2023-02-27T10:30:29.986Z,3.38
2023-02-27T10:31:36.142Z,3.46
2023-02-27T10:32:40.350Z,3.60
2023-02-27T10:33:45.286Z,3.67
2023-02-27T10:34:58.915Z,3.64
2023-02-27T10:36:03.534Z,3.62
2023-02-27T10:37:07.334Z,3.67
2023-02-27T10:38:18.854Z,3.73
2023-02-27T10:39:23.317Z,3.73
2023-02-27T10:40:27.062Z,3.80
2023-02-27T10:41:30.823Z,3.80
2023-02-27T10:42:39.144Z,3.84
2023-02-27T10:43:43.664Z,3.77
2023-02-27T10:44:53.596Z,3.84
2023-02-27T10:45:56.848Z,3.86
2023-02-27T10:47:00.152Z,3.73
2023-02-27T10:48:04.776Z,3.73
2023-02-27T10:49:19.134Z,3.77
2023-02-27T10:50:26.042Z,3.69
2023-02-27T10:51:38.509Z,3.59
2023-02-27T10:53:00.723Z,3.66
2023-02-27T10:54:21.964Z,3.80
2023-02-27T10:55:33.708Z,3.99
2023-02-27T10:56:37.337Z,4.09
2023-02-27T10:57:43.757Z,4.15
2023-02-27T10:58:47.058Z,3.83
2023-02-27T10:59:53.711Z,3.88
2023-02-27T11:00:59.386Z,3.93
2023-02-27T11:02:06.267Z,3.76
2023-02-27T11:03:25.064Z,3.88
2023-02-27T11:04:39.638Z,4.21
2023-02-27T11:05:42.476Z,4.26
2023-02-27T11:06:52.673Z,4.33
2023-02-27T11:07:57.859Z,4.62
2023-02-27T11:09:27.332Z,4.60
2023-02-27T11:10:30.459Z,4.42
2023-02-27T11:11:33.438Z,4.62
2023-02-27T11:12:36.318Z,4.60
2023-02-27T11:13:45.642Z,4.54
2023-02-27T11:14:53.877Z,4.45
2023-02-27T11:16:06.456Z,4.61
2023-02-27T11:17:22.425Z,4.91
2023-02-27T11:18:28.800Z,5.04
2023-02-27T11:19:37.519Z,5.16
2023-02-27T11:20:43.536Z,5.39
2023-02-27T11:22:07.439Z,5.77
2023-02-27T11:23:25.988Z,5.66
2023-02-27T11:24:29.382Z,5.58
2023-02-27T11:25:33.688Z,5.44
2023-02-27T11:26:39.268Z,5.73
2023-02-27T11:27:42.814Z,6.00
2023-02-27T11:28:45.666Z,5.90
2023-02-27T11:30:02.513Z,6.18
2023-02-27T11:31:22.335Z,6.28
2023-02-27T11:32:29.929Z,6.00
2023-02-27T11:33:40.455Z,6.09
2023-02-27T11:34:50.932Z,6.47
2023-02-27T11:35:58.004Z,6.07
2023-02-27T11:37:08.024Z,5.90
2023-02-27T11:38:25.675Z,5.75
2023-02-27T11:39:37.075Z,5.49
2023-02-27T11:40:50.378Z,5.49
2023-02-27T11:41:56.770Z,5.35
2023-02-27T11:43:05.215Z,5.45
2023-02-27T11:44:17.897Z,5.55
2023-02-27T11:46:04.667Z,5.43
2023-02-27T11:47:17.004Z,5.29
2023-02-27T11:48:22.035Z,5.33
2023-02-27T11:49:37.336Z,5.33
2023-02-27T11:50:53.749Z,5.42
2023-02-27T11:52:07.204Z,5.47
2023-02-27T11:53:24.709Z,5.49
2023-02-27T11:54:38.964Z,5.32
2023-02-27T11:55:43.033Z,5.29
2023-02-27T11:57:00.314Z,5.30
2023-02-27T11:58:12.934Z,5.69
2023-02-27T11:59:27.597Z,5.68
2023-02-27T12:00:39.884Z,5.56
2023-02-27T12:01:56.206Z,5.34
2023-02-27T12:03:36.377Z,5.33
2023-02-27T12:04:59.868Z,5.39
2023-02-27T12:06:13.760Z,5.21
2023-02-27T12:08:12.825Z,5.24
2023-02-27T12:09:34.822Z,5.37
2023-02-27T12:10:49.748Z,5.09
2023-02-27T12:11:53.562Z,4.80
2023-02-27T12:13:06.639Z,4.84
2023-02-27T12:14:14.264Z,4.75
2023-02-27T12:15:41.768Z,4.68
2023-02-27T12:16:57.037Z,4.65
2023-02-27T12:18:13.053Z,4.60
2023-02-27T12:19:18.663Z,4.51
2023-02-27T12:20:34.335Z,4.35
2023-02-27T12:21:42.408Z,4.34
2023-02-27T12:22:49.253Z,4.42
2023-02-27T12:24:13.968Z,4.31
2023-02-27T12:25:37.910Z,4.20
2023-02-27T12:26:47.190Z,4.15
2023-02-27T12:27:59.267Z,4.12
2023-02-27T12:29:13.678Z,4.05
2023-02-27T12:30:22.644Z,3.95
2023-02-27T12:31:32.671Z,3.89
2023-02-27T12:33:11.185Z,3.99
2023-02-27T12:34:35.801Z,3.94
2023-02-27T12:35:40.828Z,4.04
2023-02-27T12:36:44.272Z,4.11
2023-02-27T12:37:47.837Z,4.04
2023-02-27T12:38:52.547Z,4.05
2023-02-27T12:39:59.524Z,4.12
2023-02-27T12:41:11.261Z,4.15
2023-02-27T12:42:20.224Z,4.14
2023-02-27T12:43:41.479Z,4.00
2023-02-27T12:45:15.642Z,3.92
2023-02-27T12:46:42.366Z,4.05
2023-02-27T12:48:03.425Z,3.96
2023-02-27T12:49:15.356Z,3.93
2023-02-27T12:50:19.835Z,3.94
2023-02-27T12:51:31.811Z,3.91
2023-02-27T12:52:43.626Z,3.85
2023-02-27T12:54:05.383Z,3.80
2023-02-27T12:55:21.093Z,3.96
2023-02-27T12:56:34.362Z,3.98
2023-02-27T12:57:44.950Z,4.04
2023-02-27T12:59:19.598Z,3.57
2023-02-27T13:00:26.761Z,3.83
2023-02-27T13:01:48.094Z,3.86
2023-02-27T13:03:17.670Z,3.93
2023-02-27T13:04:23.368Z,3.86
2023-02-27T13:05:49.007Z,3.84
2023-02-27T13:07:04.428Z,3.84
2023-02-27T13:08:32.256Z,3.82
2023-02-27T13:09:47.762Z,3.65
2023-02-27T13:11:02.801Z,3.65
2023-02-27T13:12:34.594Z,3.70
2023-02-27T13:13:48.074Z,3.68
2023-02-27T13:15:04.208Z,3.65
2023-02-27T13:16:15.907Z,3.62
2023-02-27T13:17:34.289Z,3.47
2023-02-27T13:18:59.490Z,3.62
2023-02-27T13:20:27.155Z,3.54
2023-02-27T13:21:39.977Z,3.59
2023-02-27T13:22:58.826Z,3.42
2023-02-27T13:24:17.036Z,3.49
2023-02-27T13:25:20.588Z,3.41
2023-02-27T13:26:29.560Z,3.43
2023-02-27T13:27:38.314Z,3.49
2023-02-27T13:28:41.907Z,3.50
2023-02-27T13:29:59.468Z,3.59
2023-02-27T13:31:19.681Z,3.54
2023-02-27T13:32:43.755Z,3.61
2023-02-27T13:34:08.825Z,3.59
2023-02-27T13:35:32.649Z,3.65
2023-02-27T13:36:46.833Z,3.55
2023-02-27T13:38:05.598Z,3.26
2023-02-27T13:39:41.403Z,3.39
2023-02-27T13:40:44.192Z,3.27
2023-02-27T13:41:46.998Z,3.30
2023-02-27T13:42:49.759Z,3.35
2023-02-27T13:43:57.192Z,3.29
2023-02-27T13:45:02.240Z,3.19
2023-02-27T13:46:28.452Z,3.17
2023-02-27T13:47:31.116Z,3.16
2023-02-27T13:48:33.848Z,3.33
2023-02-27T13:49:43.098Z,3.28
2023-02-27T13:50:50.453Z,3.26
2023-02-27T13:51:54.760Z,3.15
2023-02-27T13:53:09.662Z,3.16
2023-02-27T13:54:15.639Z,3.11
2023-02-27T13:55:27.412Z,3.09
2023-02-27T13:56:30.550Z,3.23
2023-02-27T13:57:37.311Z,3.33
2023-02-27T13:58:41.271Z,3.41
2023-02-27T13:59:53.199Z,3.43
2023-02-27T14:01:00.093Z,3.45
2023-02-27T14:02:11.843Z,3.33
2023-02-27T14:03:22.114Z,3.19
2023-02-27T14:04:28.588Z,3.25
2023-02-27T14:05:36.244Z,3.28
2023-02-27T14:06:45.829Z,3.23
2023-02-27T14:08:14.263Z,3.36
2023-02-27T14:09:22.274Z,3.31
2023-02-27T14:10:28.739Z,3.39
2023-02-27T14:11:34.531Z,3.17
2023-02-27T14:12:45.746Z,3.22
2023-02-27T14:13:56.935Z,3.30
2023-02-27T14:15:01.748Z,3.20
2023-02-27T14:16:06.091Z,3.29
2023-02-27T14:17:11.950Z,3.26
2023-02-27T14:18:57.317Z,3.40
2023-02-27T14:20:01.048Z,3.47
2023-02-27T14:21:03.996Z,3.35
2023-02-27T14:22:47.649Z,3.36
2023-02-27T14:23:50.434Z,3.15
2023-02-27T14:25:06.764Z,3.36
2023-02-27T14:26:21.243Z,3.42
2023-02-27T14:27:26.888Z,3.41
2023-02-27T14:28:46.528Z,3.54
2023-02-27T14:29:52.244Z,3.44
2023-02-27T14:31:04.416Z,3.29
2023-02-27T14:32:08.616Z,3.28
2023-02-27T14:33:37.584Z,3.29
2023-02-27T14:34:42.387Z,3.38
2023-02-27T14:35:57.089Z,3.46
2023-02-27T14:37:02.452Z,3.34
2023-02-27T14:38:11.263Z,3.34
2023-02-27T14:39:33.592Z,3.17
2023-02-27T14:40:43.829Z,3.29
2023-02-27T14:41:52.090Z,3.31
2023-02-27T14:43:18.080Z,3.32
2023-02-27T14:44:28.045Z,3.29
2023-02-27T14:45:31.655Z,3.32
2023-02-27T14:46:41.371Z,3.33
2023-02-27T14:47:45.824Z,3.40
2023-02-27T14:48:54.094Z,3.40
2023-02-27T14:49:57.622Z,3.39
2023-02-27T14:51:02.022Z,3.42
2023-02-27T14:52:12.800Z,3.56
2023-02-27T14:53:25.342Z,3.52
2023-02-27T14:54:28.511Z,3.55
2023-02-27T14:55:34.067Z,3.59
2023-02-27T14:56:36.896Z,3.57
2023-02-27T14:57:40.193Z,3.40
2023-02-27T14:58:55.562Z,3.36
2023-02-27T15:00:06.598Z,3.40
2023-02-27T15:01:10.960Z,3.36
2023-02-27T15:02:28.855Z,3.27
2023-02-27T15:03:37.629Z,3.24
2023-02-27T15:04:40.796Z,3.17
2023-02-27T15:05:44.077Z,3.19
2023-02-27T15:06:50.366Z,2.98
2023-02-27T15:07:53.995Z,2.96
2023-02-27T15:08:57.410Z,2.91
2023-02-27T15:10:04.473Z,2.94
2023-02-27T15:11:13.848Z,2.92
2023-02-27T15:12:20.088Z,2.87
2023-02-27T15:13:32.599Z,2.94
2023-02-27T15:14:40.422Z,2.90
2023-02-27T15:15:43.509Z,2.88
2023-02-27T15:16:47.216Z,2.73
2023-02-27T15:17:54.656Z,2.49
2023-02-27T15:19:05.286Z,2.44
2023-02-27T15:20:31.397Z,2.42
2023-02-27T15:21:40.423Z,2.53
2023-02-27T15:22:43.191Z,2.20
2023-02-27T15:23:57.374Z,2.45
2023-02-27T15:25:01.271Z,2.29
2023-02-27T15:26:04.508Z,2.28
2023-02-27T15:27:11.408Z,2.23
2023-02-27T15:28:23.509Z,2.20
2023-02-27T15:29:42.530Z,2.21
2023-02-27T15:30:50.533Z,2.24
2023-02-27T15:31:54.091Z,2.18
2023-02-27T15:32:57.774Z,2.14
2023-02-27T15:34:02.320Z,2.18
2023-02-27T15:35:30.145Z,2.18
2023-02-27T15:36:35.876Z,2.16
2023-02-27T15:37:39.524Z,2.20
2023-02-27T15:38:42.754Z,2.09
2023-02-27T15:42:14.457Z,2.09
2023-02-27T15:43:18.961Z,2.12
2023-02-27T15:44:27.781Z,2.09
2023-02-27T15:45:36.217Z,2.08
2023-02-27T15:46:39.382Z,2.02
2023-02-27T15:47:44.799Z,1.97
2023-02-27T15:48:53.972Z,1.86
2023-02-27T15:50:09.001Z,1.90
2023-02-27T15:51:12.223Z,1.87
2023-02-27T15:52:26.564Z,1.86
2023-02-27T15:53:34.141Z,1.79
2023-02-27T15:54:43.114Z,1.73
2023-02-27T15:56:01.016Z,1.74
2023-02-27T15:57:05.681Z,1.76
2023-02-27T15:58:30.707Z,1.70
2023-02-27T15:59:37.596Z,1.67
2023-02-27T16:00:42.376Z,1.65
2023-02-27T16:01:58.208Z,1.60
2023-02-27T16:03:02.316Z,1.60
2023-02-27T16:04:20.663Z,1.59
2023-02-27T16:05:36.190Z,1.56
2023-02-27T16:06:41.360Z,1.48
2023-02-27T16:07:45.583Z,1.61
2023-02-27T16:09:01.792Z,1.59
2023-02-27T16:10:17.487Z,1.57
2023-02-27T16:11:28.150Z,1.51
2023-02-27T16:12:38.232Z,1.48
2023-02-27T16:13:41.983Z,1.47
2023-02-27T16:14:45.512Z,1.45
2023-02-27T16:16:00.480Z,1.42
2023-02-27T16:17:04.264Z,1.44
2023-02-27T16:18:08.239Z,1.42
2023-02-27T16:19:46.092Z,1.41
2023-02-27T16:20:55.039Z,1.39
2023-02-27T16:22:07.064Z,1.35
2023-02-27T16:23:09.923Z,1.26
2023-02-27T16:24:29.955Z,1.30
2023-02-27T16:25:34.832Z,1.28
2023-02-27T16:26:37.951Z,1.26
2023-02-27T16:27:50.167Z,1.29
2023-02-27T16:29:14.138Z,1.24
2023-02-27T16:30:20.169Z,1.27
2023-02-27T16:31:47.038Z,1.19
2023-02-27T16:33:00.112Z,1.26
2023-02-27T16:34:14.054Z,1.23
2023-02-27T16:35:24.233Z,1.22
2023-02-27T16:36:30.792Z,1.21
2023-02-27T16:37:40.482Z,1.20
2023-02-27T16:38:44.210Z,1.19
2023-02-27T16:39:50.138Z,1.14
2023-02-27T16:40:56.596Z,1.17
2023-02-27T16:42:02.613Z,1.17
2023-02-27T16:43:07.320Z,1.17
2023-02-27T16:44:11.426Z,1.12
2023-02-27T16:45:17.389Z,1.10
2023-02-27T16:46:22.040Z,1.07
2023-02-27T16:47:28.957Z,1.04
2023-02-27T16:48:32.325Z,1.05
2023-02-27T16:49:35.956Z,1.05
2023-02-27T16:50:43.104Z,1.03
2023-02-27T16:51:47.505Z,1.02
2023-02-27T16:52:51.117Z,0.98
2023-02-27T16:53:56.707Z,0.99
2023-02-27T16:54:59.782Z,0.99
2023-02-27T16:56:03.124Z,0.97
2023-02-27T16:57:06.644Z,0.93
2023-02-27T16:58:17.057Z,0.94
2023-02-27T16:59:26.974Z,0.94
2023-02-27T17:00:36.478Z,0.96
2023-02-27T17:01:39.683Z,0.96
2023-02-27T17:02:45.086Z,0.95
2023-02-27T17:03:49.078Z,0.93
2023-02-27T17:04:52.446Z,0.79
2023-02-27T17:05:58.518Z,0.91
2023-02-27T17:07:07.789Z,0.90
2023-02-27T17:08:13.003Z,0.89
2023-02-27T17:09:16.673Z,0.89
2023-02-27T17:10:22.469Z,0.89
2023-02-27T17:11:25.227Z,0.87
2023-02-27T17:12:28.847Z,0.83
2023-02-27T17:13:36.603Z,0.79
2023-02-27T17:14:39.866Z,0.79
2023-02-27T17:15:43.134Z,0.79
2023-02-27T17:16:47.926Z,0.80
2023-02-27T17:17:52.573Z,0.75
2023-02-27T17:18:58.280Z,0.71
2023-02-27T17:20:02.052Z,0.71
2023-02-27T17:21:05.701Z,0.68
2023-02-27T17:22:09.198Z,0.66
2023-02-27T17:23:14.414Z,0.65
2023-02-27T17:24:18.238Z,0.69
2023-02-27T17:25:23.428Z,0.59
2023-02-27T17:26:27.448Z,0.65
2023-02-27T17:27:30.880Z,0.70
2023-02-27T17:28:34.317Z,0.68
2023-02-27T17:29:39.332Z,0.66
2023-02-27T17:30:43.001Z,0.67
2023-02-27T17:31:46.752Z,0.67
2023-02-27T17:32:51.489Z,0.63
2023-02-27T17:33:55.684Z,0.65
2023-02-27T17:34:59.456Z,0.63
2023-02-27T17:36:10.888Z,0.61
2023-02-27T17:37:15.627Z,0.54
2023-02-27T17:38:19.557Z,0.59
2023-02-27T17:39:23.578Z,0.62
2023-02-27T17:40:27.810Z,0.62
2023-02-27T17:41:32.969Z,0.60
2023-02-27T17:42:37.788Z,0.60
2023-02-27T17:43:43.683Z,0.64
2023-02-27T17:44:48.969Z,0.61
2023-02-27T17:45:53.141Z,0.64
2023-02-27T17:46:57.457Z,0.62
2023-02-27T17:48:01.834Z,0.61
2023-02-27T17:49:06.302Z,0.61
2023-02-27T17:50:11.025Z,0.62
2023-02-27T17:51:18.929Z,0.60
2023-02-27T17:52:22.831Z,0.57
2023-02-27T17:53:27.075Z,0.49
2023-02-27T17:54:31.791Z,0.55
2023-02-27T17:55:37.070Z,0.53
2023-02-27T17:56:43.861Z,0.52
2023-02-27T17:57:48.002Z,0.49
2023-02-27T17:58:53.070Z,0.51
2023-02-27T17:59:58.922Z,0.39
2023-02-27T18:01:12.523Z,0.47
2023-02-27T18:02:17.913Z,0.49
2023-02-27T18:03:26.607Z,0.47
2023-02-27T18:04:31.760Z,0.47
2023-02-27T18:05:36.007Z,0.48
2023-02-27T18:06:40.480Z,0.48
2023-02-27T18:07:44.631Z,0.45
2023-02-27T18:08:48.879Z,0.48
2023-02-27T18:09:53.820Z,0.44
2023-02-27T18:10:59.102Z,0.45
2023-02-27T18:12:04.354Z,0.48
2023-02-27T18:13:08.859Z,0.47
2023-02-27T18:14:15.112Z,0.47
2023-02-27T18:15:21.622Z,0.45
2023-02-27T18:16:28.071Z,0.42
2023-02-27T18:17:33.250Z,0.40
2023-02-27T18:18:39.683Z,0.37
2023-02-27T18:19:44.112Z,0.37
2023-02-27T18:20:48.509Z,0.33
2023-02-27T18:21:52.350Z,0.35
2023-02-27T18:22:56.610Z,0.33
2023-02-27T18:24:00.956Z,0.31
2023-02-27T18:25:05.875Z,0.33
2023-02-27T18:26:27.078Z,0.29
2023-02-27T18:27:39.318Z,0.26
2023-02-27T18:28:43.683Z,0.25
2023-02-27T18:29:49.741Z,0.26
2023-02-27T18:30:55.300Z,0.26
2023-02-27T18:32:00.952Z,0.27
2023-02-27T18:33:07.951Z,0.23
2023-02-27T18:34:15.328Z,0.20
2023-02-27T18:35:23.593Z,0.19
2023-02-27T18:36:28.252Z,0.18
2023-02-27T18:37:32.987Z,0.17
2023-02-27T18:38:38.256Z,0.13
2023-02-27T18:39:45.158Z,0.12
2023-02-27T18:40:52.991Z,0.07
2023-02-27T18:41:56.555Z,0.09
2023-02-27T18:43:04.956Z,0.08
2023-02-27T18:44:15.582Z,0.06
2023-02-27T18:45:23.347Z,0.06
2023-02-27T18:46:35.919Z,0.02
2023-02-27T18:47:46.054Z,0.04
2023-02-27T18:48:51.437Z,0.05
2023-02-27T18:50:03.530Z,0.04
2023-02-27T18:51:27.786Z,-0.01
2023-02-27T18:52:42.703Z,0.00
2023-02-27T18:53:50.528Z,0.00
2023-02-27T18:54:54.478Z,-0.01
2023-02-27T18:56:03.235Z,-0.02
2023-02-27T18:57:07.427Z,0.02
2023-02-27T18:58:15.199Z,0.03
2023-02-27T18:59:19.443Z,0.02
2023-02-27T19:00:24.734Z,0.01
2023-02-27T19:01:32.323Z,0.01
2023-02-27T19:02:41.896Z,0.02
2023-02-27T19:03:46.673Z,-0.10
2023-02-27T19:04:52.213Z,-0.01
2023-02-27T19:05:56.505Z,-0.09
2023-02-27T19:07:01.079Z,-0.03
2023-02-27T19:08:05.304Z,-0.05
2023-02-27T19:09:12.969Z,-0.04
2023-02-27T19:10:17.306Z,-0.05
2023-02-27T19:11:24.215Z,-0.06
2023-02-27T19:12:27.928Z,-0.06
2023-02-27T19:13:33.293Z,-0.05
2023-02-27T19:14:38.608Z,-0.03
2023-02-27T19:15:42.753Z,-0.05
2023-02-27T19:16:46.986Z,-0.07
2023-02-27T19:17:53.053Z,-0.04
2023-02-27T19:18:58.861Z,-0.02
2023-02-27T19:20:04.382Z,-0.04
2023-02-27T19:21:09.826Z,-0.04
2023-02-27T19:22:13.624Z,-0.11
2023-02-27T19:23:17.780Z,-0.06
2023-02-27T19:24:23.695Z,-0.40
2023-02-27T19:25:27.814Z,-0.06
2023-02-27T19:26:34.720Z,-0.08
2023-02-27T19:27:39.715Z,-0.11
2023-02-27T19:28:44.044Z,-0.11
2023-02-27T19:29:48.624Z,-0.11
2023-02-27T19:30:53.208Z,-0.09
2023-02-27T19:31:56.687Z,-0.10
2023-02-27T19:33:01.391Z,-0.10
2023-02-27T19:34:06.154Z,-0.12
2023-02-27T19:35:14.916Z,-0.12
2023-02-27T19:36:22.906Z,-0.12
2023-02-27T19:37:28.298Z,-0.13
2023-02-27T19:38:33.683Z,-0.14
2023-02-27T19:39:38.100Z,-0.16
2023-02-27T19:40:41.930Z,-0.13
2023-02-27T19:41:46.531Z,-0.13
2023-02-27T19:42:50.898Z,-0.15
2023-02-27T19:43:55.793Z,-0.16
2023-02-27T19:45:01.436Z,-0.15
2023-02-27T19:46:11.339Z,-0.17
2023-02-27T19:47:15.260Z,-0.17
2023-02-27T19:48:20.458Z,-0.18
2023-02-27T19:49:24.977Z,-0.19
2023-02-27T19:50:30.997Z,-0.21
2023-02-27T19:51:36.869Z,-0.43
2023-02-27T19:52:41.901Z,-0.22
2023-02-27T19:53:49.199Z,-0.24
2023-02-27T19:54:55.018Z,-0.23
2023-02-27T19:56:04.264Z,-0.24
2023-02-27T19:57:09.249Z,-0.24
2023-02-27T19:58:14.888Z,-0.22
2023-02-27T19:59:25.897Z,-0.22
2023-02-27T20:00:32.989Z,-0.25
2023-02-27T20:01:39.540Z,-0.25
2023-02-27T20:02:43.940Z,-0.25
2023-02-27T20:03:48.173Z,-0.24
2023-02-27T20:04:52.035Z,-0.24
2023-02-27T20:05:56.679Z,-0.21
2023-02-27T20:07:02.723Z,-0.21
2023-02-27T20:08:07.204Z,-0.28
2023-02-27T20:09:16.122Z,-0.21
2023-02-27T20:10:25.063Z,-0.25
2023-02-27T20:11:33.342Z,-0.24
2023-02-27T20:12:37.932Z,-0.25
2023-02-27T20:13:41.497Z,-0.25
2023-02-27T20:14:44.846Z,-0.26
2023-02-27T20:16:08.799Z,-0.27
2023-02-27T20:17:17.111Z,-0.29
2023-02-27T20:18:23.409Z,-0.30
2023-02-27T20:19:29.041Z,-0.26
2023-02-27T20:20:34.599Z,-0.27
2023-02-27T20:21:39.879Z,-0.30
2023-02-27T20:22:46.522Z,-0.29
2023-02-27T20:23:54.607Z,-0.30
2023-02-27T20:25:00.530Z,-0.30
2023-02-27T20:26:33.422Z,-0.31
2023-02-27T20:27:38.715Z,-0.32
2023-02-27T20:28:43.667Z,-0.32
2023-02-27T20:29:55.843Z,-0.30
2023-02-27T20:30:59.925Z,-0.29
2023-02-27T20:32:04.633Z,-0.35
2023-02-27T20:33:08.822Z,-0.29
2023-02-27T20:34:16.968Z,-0.31
2023-02-27T20:35:21.521Z,-0.31
2023-02-27T20:36:25.908Z,-0.30
2023-02-27T20:37:33.119Z,-0.33
2023-02-27T20:38:40.487Z,-0.33
2023-02-27T20:39:45.899Z,-0.32
2023-02-27T20:40:50.503Z,-0.30
2023-02-27T20:41:55.806Z,-0.31
2023-02-27T20:42:59.925Z,-0.30
2023-02-27T20:44:05.653Z,-0.31
2023-02-27T20:45:09.587Z,-0.35
2023-02-27T20:46:21.250Z,-0.34
2023-02-27T20:47:26.131Z,-0.35
2023-02-27T20:48:29.989Z,-0.39
2023-02-27T20:49:34.385Z,-0.39
2023-02-27T20:50:38.626Z,-0.41
2023-02-27T20:51:43.638Z,-0.42
2023-02-27T20:52:47.890Z,-0.43
2023-02-27T20:53:55.798Z,-0.46
2023-02-27T20:55:01.348Z,-0.47
2023-02-27T20:56:06.814Z,-0.48
2023-02-27T20:57:11.431Z,-0.47
2023-02-27T20:58:18.602Z,-0.46
2023-02-27T20:59:25.155Z,-0.47
2023-02-27T21:00:32.798Z,-0.45
2023-02-27T21:01:38.466Z,-0.44
2023-02-27T21:02:42.748Z,-0.44
2023-02-27T21:03:47.585Z,-0.46
2023-02-27T21:04:53.557Z,-0.45
2023-02-27T21:06:00.309Z,-0.46
2023-02-27T21:07:04.212Z,-0.44
2023-02-27T21:08:07.798Z,-0.44
2023-02-27T21:09:11.148Z,-0.47
2023-02-27T21:10:16.245Z,-0.42
2023-02-27T21:11:26.828Z,-0.45
2023-02-27T21:12:30.650Z,-0.48
2023-02-27T21:13:34.303Z,-0.52
2023-02-27T21:14:38.036Z,-0.52
2023-02-27T21:15:41.503Z,-0.53
2023-02-27T21:16:45.019Z,-0.53
2023-02-27T21:17:49.171Z,-0.51
2023-02-27T21:18:54.288Z,-0.51
2023-02-27T21:19:57.612Z,-0.56
2023-02-27T21:21:08.946Z,-0.59
2023-02-27T21:22:12.174Z,-0.60
2023-02-27T21:23:15.101Z,-0.61
2023-02-27T21:24:18.971Z,-0.60
2023-02-27T21:25:23.805Z,-0.66
2023-02-27T21:26:35.315Z,-0.65
2023-02-27T21:27:38.914Z,-0.70
2023-02-27T21:28:47.906Z,-0.67
2023-02-27T21:29:52.911Z,-0.78
2023-02-27T21:31:03.961Z,-0.72
2023-02-27T21:32:11.108Z,-0.72
2023-02-27T21:33:14.319Z,-0.68
2023-02-27T21:35:00.756Z,-0.67
2023-02-27T21:36:04.531Z,-0.68
2023-02-27T21:37:10.276Z,-0.74
2023-02-27T21:38:14.600Z,-0.71
2023-02-27T21:39:23.403Z,-0.72
2023-02-27T21:40:26.542Z,-0.68
2023-02-27T21:41:30.822Z,-0.74
2023-02-27T21:42:33.999Z,-0.69
2023-02-27T21:43:37.054Z,-0.67
2023-02-27T21:44:40.320Z,-0.66
2023-02-27T21:45:47.782Z,-0.67
2023-02-27T21:46:51.149Z,-0.64
2023-02-27T21:47:54.146Z,-0.72
2023-02-27T21:48:57.523Z,-0.75
2023-02-27T21:50:00.311Z,-0.78
2023-02-27T21:51:04.863Z,-0.71
2023-02-27T21:52:08.026Z,-1.05
2023-02-27T21:53:11.182Z,-0.70
2023-02-27T21:54:15.600Z,-0.65
2023-02-27T21:55:18.542Z,-0.66
2023-02-27T21:56:21.352Z,-0.66
2023-02-27T21:57:24.658Z,-0.66
2023-02-27T21:58:27.623Z,-0.65
2023-02-27T21:59:31.149Z,-0.64
2023-02-27T22:00:37.194Z,-0.69
2023-02-27T22:01:40.815Z,-0.65
2023-02-27T22:02:43.639Z,-0.73
2023-02-27T22:03:48.687Z,-0.66
2023-02-27T22:04:51.749Z,-0.73
2023-02-27T22:05:54.624Z,-0.66
2023-02-27T22:06:57.760Z,-0.68
2023-02-27T22:08:00.469Z,-0.68
2023-02-27T22:09:07.179Z,-0.64
2023-02-27T22:10:10.600Z,-0.65
2023-02-27T22:13:35.852Z,-0.68
2023-02-27T22:14:39.680Z,-0.68
2023-02-27T22:15:42.761Z,-0.71
2023-02-27T22:16:45.649Z,-0.73
2023-02-27T22:17:50.659Z,-0.74
2023-02-27T22:18:53.643Z,-0.69
2023-02-27T22:20:10.064Z,-0.72
2023-02-27T22:21:18.641Z,-0.68
2023-02-27T22:22:21.436Z,-0.68
2023-02-27T22:23:24.197Z,-0.69
2023-02-27T22:24:27.005Z,-0.73
2023-02-27T22:25:30.339Z,-0.72
2023-02-27T22:26:33.622Z,-0.70